Airfield :
LOGIN :

Register | Disclaimer

   EN    FR    IT 

 










Legend :    VFR   Marginal VFR   IFR   Intensive IFR   Very Intensive IFR
Visi :
Ceiling :
>= 8 km
>= 3000ft
5 to 8 km
1000 to 3000 ft
1500m to 5 km
500 to 1000 ft
800 to 1500m
200 to 500 ft
< 800m
< 200 ft
Symbols :   Thunderstorms  Fog  Heavy snow  Heavy precipitations  Wind > 20 kt
SIGMETs :     Misc.  Thunderstorms  Icing  Turbulence  Mountain Waves  Volcanic Ashes






- Airport Elevation : 1674 ft
- IATA code : BRN


LSZB - Bern Belp

CURRENT METAR :
  • 280650Z 04005KT 9999 BKN030 07/03 Q1017

EXPIRED METARs :
  • 280620Z VRB04KT 9999 BKN030 07/03 Q1017
  • 280550Z 01004KT 9999 SCT024 BKN030 07/03 Q1017
  • 280520Z 01005KT 9999 SCT024 BKN030 07/03 Q1016
  • 280450Z 01004KT 9999 SCT024 BKN030 07/04 Q1016
  • 280420Z 03003KT 9999 SCT024 BKN030 07/04 Q1016
  • 280350Z AUTO 36005KT 320V040 9999 BKN019 BKN021 07/04 Q1015
  • 280320Z AUTO 36005KT 340V040 9999 SCT021 BKN024 BKN029 07/04 Q1015
  • 280250Z AUTO VRB02KT 9999 FEW018 BKN028 OVC031 07/04 Q1015
  • 280220Z AUTO VRB03KT 9999 FEW026 OVC029 OVC032 07/04 Q1015
  • 280150Z AUTO 02004KT 340V060 9999 SCT031 BKN035 07/04 Q1015

TAF TAF LSZB
Valid from the 28 at 06:00 until the 28 at 15:00 UTC


280525Z 2806/2815 02004KT 9999 SCT025 BKN030
PROB30 2806/2808 BKN014
ATIS : +41 22 417 40 76



MET'MAP, your aeronautical weather chart ! - Copyright ORBIFLY December 2007 - Disclaimer

ORBIFLY MET'MAP TEAM :

Programming & Development : Alexandra Zaïnal
Original concept : Baudouin d'Aumeries
Technical & hardware support : Manuel Goepfert
Assistance : Marc-Olivier Méhu




SOURCES & CREDITS :

   NOAA